Skip to main content
SPAQ logo

SPAQ · Horizon Kinetics SPAC Active ETF ETF

Alerts for SPAQ
$93.79 -0.01 (-0.01%) At close · Sep 4

Daily short-sale volume published by FINRA from its trade-reporting facilities. It measures how many shares were sold short each day as a share of total volume — a daily flow, not the total outstanding short position.

Short Volume

Date Short Volume Short Exempt Total Volume Short %
2026-09-04 3 0 7 43.6%
2026-09-03 3 0 7 43.6%
2026-09-02 3 0 7 43.6%
2026-09-01 2 0 6 33.7%
2026-08-31 3 0 27 11.2%
2026-08-28 3 0 7 43.5%
2026-08-27 3 0 7 43.6%
2026-08-26 3 0 8 38.1%
2026-08-25 3 0 9 33.3%
2026-08-24 3 0 8 38.1%
2026-08-21 2 0 6 33.7%
2026-08-20 3 0 7 43.3%
2026-08-19 4 0 8 50.5%
2026-08-18 3 0 7 43.3%
2026-08-17 8 0 13 61.9%
2026-08-14 2 0 5 40.6%
2026-08-13 3 0 7 43.3%
2026-08-12 3 0 10 30.2%
2026-08-11 3 0 7 43.3%
2026-08-10 6 0 12 50.6%
2026-08-07 13 0 17 76.8%
2026-08-06 3 0 10 31.3%
2026-08-05 3 0 7 43.3%
2026-08-04 3 0 19 15.8%
2026-08-03 4 0 11 37.6%
2026-07-31 3 0 8 37.5%
2026-07-30 3 0 66 4.6%
2026-07-29 5 0 28 17.9%
2026-07-28 6 0 83 7.2%
2026-07-27 3 0 25 12.0%
2026-07-24 3 0 8 37.5%
2026-07-23 3 0 7 42.9%
2026-07-22 2 0 7 28.6%
2026-07-21 3 0 4 75.1%
2026-07-20 4 0 8 50.0%
2026-07-17 3 0 7 42.9%
2026-07-16 3 0 57 5.3%
2026-07-15 2 0 207 1.0%
2026-07-14 3 0 107 2.8%
2026-07-13 5 0 11 46.6%
2026-07-10 8 0 16 51.4%
2026-07-09 20 0 32 63.3%
2026-07-08 13 0 19 67.0%
2026-07-07 5 0 7 68.0%
2026-07-06 3 0 8 39.5%
2026-07-02 2 0 4 55.6%
2026-07-01 2 0 4 55.6%
2026-06-30 23 0 170 13.5%
2026-06-29 3 0 8 39.5%
2026-06-26 1 0 3 38.5%
Showing 1–50 of 52 days